Tiempo atmosférico en la estación meteorológica de Tarazona, Zaragoza (475 m.)



Fecha
DESCASC
Temp. máxima en grados centígrados (hora)
DESCASC
Temp. mínima en grados centígrados (hora)
DESCASC
Temp. media en grados centígrados
DESCASC
Racha de viento máxima en m/sg (hora)
DESCASC
Velocidad máxima media en intervalos de 10 minutos(hora)
DESCASC
Precipitaciones diarias en mm
DESCASC
Precipitaciones de 00:00 a 06:00 en mm
DESCASC
Precipitaciones de 06:00 a 12:00 en mm
DESCASC
Precipitaciones de 12:00 a 18:00 en mm
DESCASC
Precipitaciones de 18:00 a 24:00 en mm
DESCASC
19-01-2020 7.2 (15:00) 2.1 (23:50) 4.6 18.89 (14:00) 11.11 (15:20) 5.2 0.4 4.8 0 0
18-01-2020 11.1 (14:40) 1.9 (01:40) 6.5 16.11 (21:40) 10.28 (21:50) 2.6 0 0 0 2.6
17-01-2020 14.4 (13:00) 2.9 (23:59) 8.6 16.39 (02:00) 6.67 (01:00) 0 0 0 0 0
16-01-2020 14.2 (16:20) 1.2 (00:00) 7.7 7.5 (21:20) 3.89 (21:30) 0 0 0 0 0
15-01-2020 12.4 (16:10) -0.9 (-00:0) 5.7 7.78 (21:10) 4.44 (21:10) 0 0 0 0 0
14-01-2020 6.6 (15:20) -4.7 (-00:0) 1 5.83 (09:00) 3.33 (05:00) 0 0 0 0 0
13-01-2020 4.5 (14:10) -3.6 (-00:0) 0.5 5 (19:10) 2.5 (04:50) 0 0 0 0 0
12-01-2020 12.4 (15:50) -2.8 (08:50) 4.8 4.44 (18:40) 3.33 (18:30) 0 0 0 0 0
11-01-2020 11.1 (14:10) 1.9 (00:00) 6.5 7.5 (11:30) 4.72 (11:20) 0 0 0 0 0
10-01-2020 9.8 (15:20) 2.2 (00:00) 6 11.11 (13:40) 6.11 (13:10) 0.6 0.6 0 0 0
09-01-2020 2.7 (14:40) -0.7 (-00:0) 1 5.83 (18:30) 3.33 (18:20) 0.2 0.2 0 0 0
08-01-2020 9.9 (02:40) 0.4 (00:00) 5.1 5 (04:00) 3.61 (04:30) 0 0 0 0 0
07-01-2020 10.8 (23:00) -2 (-00:0) 4.4 5.56 (22:50) 3.33 (20:00) 0 0 0 0 0
06-01-2020 2.6 (16:30) -1.9 (-00:0) 0.3 3.33 (08:10) 2.22 (08:10) 0 0 0 0 0
05-01-2020 13.6 (16:10) 0.6 (00:00) 7.1 5.56 (14:20) 3.06 (07:40) 0 0 0 0 0
04-01-2020 12.8 (13:40) 2.1 (00:00) 7.5 11.11 (15:00) 6.39 (15:10) 0 0 0 0 0
03-01-2020 10.6 (17:10) -2.8 (-00:0) 3.9 5.56 (22:00) 3.33 (23:50) 0 0 0 0 0
02-01-2020 -0.8 (17:00) -3.9 (-00:0) -2.4 3.06 (08:40) 1.67 (08:30) 0 0 0 0 0
01-01-2020 0.5 (17:20) -4.3 (-00:0) -1.9 3.33 (09:10) 2.22 (06:20) 0 0 0 0 0
31-12-2019 1.1 (15:40) -0.9 (-00:0) 0.1 3.33 (06:30) 1.94 (05:50) 0 0 0 0 0
30-12-2019 -- (--) -- (--) -- -- (--) -- (--) -- 0 0 0 --
29-12-2019 1.3 (15:50) -4 (-00:0) -1.4 3.33 (13:30) 1.67 (13:20) 0 0 0 0 0
28-12-2019 10.3 (14:10) 0.5 (00:00) 5.4 5 (00:50) 3.61 (04:20) 0 0 0 0 0
27-12-2019 13.3 (16:10) 0.9 (00:00) 7.1 6.11 (19:00) 3.89 (19:00) 0 0 0 0 0
26-12-2019 12.9 (02:40) 3.6 (00:00) 8.2 7.78 (08:50) 4.44 (15:00) 0 0 0 0 0
25-12-2019 14.5 (14:30) 3.6 (00:00) 9 4.44 (00:30) 2.78 (19:30) 0 0 0 0 0
24-12-2019 15 (15:00) 5.4 (09:00) 10.2 6.11 (07:50) 2.5 (07:50) 0 0 0 0 0
23-12-2019 14.6 (12:40) 6.9 (00:00) 10.8 10.28 (04:00) 5.28 (08:30) 0 0 0 0 0

Gráficas

Temp. máximas Temp. mínimas Temp. medias Precipitaciones Rachas de viento máximas Velocidades máximas media en intervalos de 10 minutos

Datos horarios

Fecha y hora oficial Temperatura (ºC) Velocidad del viento (km/h) Dirección del viento Racha (km/h) Dirección de racha Precipitación (mm) Presión (hPa) Tendencia (hPa) Humedad (%)
2020-01-21 23:00:00 -- -- -- -- -- -- -- -- --
2020-01-21 22:00:00 2.3 6 Norte 15 Norte 2 -- -- 98
2020-01-21 21:00:00 2.1 4 Sudoeste 10 Oeste 2.6 -- -- 98
2020-01-21 20:00:00 1.9 3 Oeste 11 Sudoeste 2.8 -- -- 97
2020-01-21 19:00:00 2 3 Sur 8 Sudoeste 2.8 -- -- 97
2020-01-21 18:00:00 1.7 4 Sur 12 Sudeste 1.8 -- -- 97
2020-01-21 17:00:00 1.4 5 Sur 14 Noroeste 1.4 -- -- 97
2020-01-21 16:00:00 1 3 Sudoeste 8 Sudoeste 2 -- -- 97
2020-01-21 15:00:00 0.9 3 Sudoeste 10 Sudoeste 2.2 -- -- 96
2020-01-21 14:00:00 0.5 3 Oeste 9 Sudoeste 3.6 -- -- 96
2020-01-21 13:00:00 0.7 5 Sur 9 Sudoeste 2.6 -- -- 95
2020-01-21 12:00:00 1.1 5 Sudoeste 11 Norte 2 -- -- 92
2020-01-21 11:00:00 1.7 5 Norte 13 Noroeste 0.2 -- -- 92
2020-01-21 10:00:00 1.1 0 Calma 6 Sudoeste 0.2 -- -- 94
2020-01-21 09:00:00 0.9 0 Calma 13 Noroeste 1 -- -- 92
2020-01-21 08:00:00 0.8 3 Oeste 26 Norte 1.8 -- -- 91
2020-01-21 07:00:00 2.4 15 Norte 30 Norte 0 -- -- 77
2020-01-21 06:00:00 2.6 5 Norte 12 Norte 0 -- -- 75
2020-01-21 05:00:00 2.2 4 Sur 10 Oeste 0 -- -- 81
2020-01-21 04:00:00 1.7 5 Noroeste 15 Sudoeste 0 -- -- 81
2020-01-21 03:00:00 1.7 8 Sudoeste 14 Sudoeste 0 -- -- 79
2020-01-21 02:00:00 2.1 6 Oeste 14 Oeste 0 -- -- 69
2020-01-21 01:00:00 1.9 6 Noroeste 18 Noroeste 0 -- -- 68
2020-01-21 00:00:00 1.8 6 Noroeste 21 Noroeste 0 -- -- 67
2020-01-20 23:00:00 2 9 Norte 26 Noroeste 0 -- -- 66
2020-01-20 22:00:00 2.2 17 Noroeste 31 Norte 0 -- -- 64
2020-01-20 21:00:00 2.7 13 Norte 33 Norte 0 -- -- 60
2020-01-20 20:00:00 3 15 Noroeste 33 Norte 0 -- -- 58
2020-01-20 19:00:00 2.6 17 Norte 33 Noroeste 0 -- -- 61
2020-01-20 18:00:00 2.9 12 Norte 35 Norte 0 -- -- 59
2020-01-20 17:00:00 3.2 14 Noroeste 39 Noroeste 0 -- -- 57
2020-01-20 16:00:00 3.7 20 Norte 46 Norte 0 -- -- 54
2020-01-20 15:00:00 4 24 Norte 47 Norte 0 -- -- 53
2020-01-20 14:00:00 3.9 18 Norte 42 Noroeste 0 -- -- 53
2020-01-20 13:00:00 3.1 22 Norte 36 Norte 0 -- -- 54
2020-01-20 12:00:00 2.4 17 Norte 34 Norte 0 -- -- 57
2020-01-20 11:00:00 2 17 Noroeste 48 Norte 0 -- -- 58
2020-01-20 10:00:00 1.5 18 Noroeste 42 Noroeste 0 -- -- 60
2020-01-20 09:00:00 1 19 Noroeste 46 Norte 0 -- -- 62
2020-01-20 08:00:00 0.8 17 Noroeste 40 Noroeste 0 -- -- 63
2020-01-20 07:00:00 0.7 18 Noroeste 40 Noroeste 0 -- -- 65
2020-01-20 06:00:00 0.9 21 Noroeste 52 Noroeste 0 -- -- 64
2020-01-20 05:00:00 0.9 23 Noroeste 51 Norte 0 -- -- 65
2020-01-20 04:00:00 1 24 Noroeste 53 Noroeste 0 -- -- 65
2020-01-20 03:00:00 1.3 26 Noroeste 57 Noroeste 0 -- -- 66
2020-01-20 02:00:00 1.6 29 Noroeste 56 Norte 0 -- -- 65
2020-01-20 01:00:00 1.7 25 Noroeste 60 Noroeste 0 -- -- 65
2020-01-20 00:00:00 2.1 29 Noroeste 53 Noroeste 0 -- -- 63
2020-01-19 23:00:00 2.4 27 Noroeste 51 Noroeste 0 -- -- 62
2020-01-19 22:00:00 2.8 27 Noroeste 58 Noroeste 0 -- -- 60
2020-01-19 21:00:00 3.1 26 Noroeste 54 Noroeste 0 -- -- 60
2020-01-19 20:00:00 3.5 29 Noroeste 59 Norte 0 -- -- 60
2020-01-19 19:00:00 3.7 26 Noroeste 63 Noroeste 0 -- -- 61
2020-01-19 18:00:00 4.3 29 Noroeste 63 Noroeste 0 -- -- 59
2020-01-19 17:00:00 5.6 37 Norte 67 Norte 0 -- -- 54
2020-01-19 16:00:00 6.9 35 Norte 68 Norte 0 -- -- 53
2020-01-19 15:00:00 7.2 33 Norte 66 Noroeste 0 -- -- 55
2020-01-19 14:00:00 6.9 39 Norte 68 Norte 0 -- -- 59
2020-01-19 13:00:00 6.2 33 Norte 66 Noroeste 0 -- -- 61
2020-01-19 12:00:00 6.1 35 Norte 64 Norte 0.2 -- -- 65
2020-01-19 11:00:00 5.7 28 Norte 66 Noroeste 0 -- -- 71
2020-01-19 10:00:00 5.4 31 Norte 62 Oeste 0 -- -- 77
2020-01-19 09:00:00 5.3 29 Norte 54 Noroeste 0.8 -- -- 81
2020-01-19 08:00:00 5.4 24 Norte 49 Norte 2 -- -- 89
2020-01-19 07:00:00 5.9 22 Norte 41 Norte 1.8 -- -- 88
2020-01-19 06:00:00 6 18 Noroeste 37 Noroeste 0 -- -- 86
2020-01-19 05:00:00 5.3 9 Noroeste 17 Noroeste 0 -- -- 88
2020-01-19 04:00:00 5 10 Noroeste 18 Noroeste 0.2 -- -- 90
2020-01-19 03:00:00 4.8 3 Noroeste 8 Norte 0.2 -- -- 92
2020-01-19 02:00:00 5 0 Calma 6 Este 0 -- -- 90
2020-01-19 01:00:00 5.1 0 Calma 22 Noroeste 0 -- -- 89
2020-01-19 00:00:00 5.3 17 Noroeste 29 Noroeste 0 -- -- 86
2020-01-18 23:00:00 5.4 17 Noroeste 55 Noroeste 0 -- -- 86
2020-01-18 22:00:00 5.8 32 Noroeste 58 Noroeste 1.4 -- -- 83
2020-01-18 21:00:00 7 10 Noroeste 19 Noroeste 1.2 -- -- 87
2020-01-18 20:00:00 7.5 3 Norte 9 Oeste 0 -- -- 80
2020-01-18 19:00:00 8.4 4 Oeste 21 Norte 0 -- -- 75
2020-01-18 18:00:00 8.9 10 Norte 19 Norte 0 -- -- 73
2020-01-18 17:00:00 9.6 4 Norte 13 Norte 0 -- -- 69
2020-01-18 16:00:00 9.9 5 Nordeste 12 Norte 0 -- -- 67
2020-01-18 15:00:00 10.8 5 Norte 13 Nordeste 0 -- -- 62
2020-01-18 14:00:00 9.9 7 Este 14 Este 0 -- -- 66
2020-01-18 13:00:00 9.8 9 Este 15 Este 0 -- -- 63
2020-01-18 12:00:00 8.1 3 Este 14 Nordeste 0 -- -- 69
2020-01-18 11:00:00 5.9 5 Nordeste 11 Este 0 -- -- 79
2020-01-18 10:00:00 4.5 0 Calma 6 Oeste 0 -- -- 84
2020-01-18 09:00:00 3.8 3 Sudoeste 10 Oeste 0 -- -- 84
2020-01-18 08:00:00 3.4 6 Sudoeste 12 Oeste 0 -- -- 87
2020-01-18 07:00:00 3.2 5 Oeste 9 Noroeste 0 -- -- 86
2020-01-18 06:00:00 3.4 2 Sudoeste 10 Oeste 0 -- -- 87
2020-01-18 05:00:00 3.2 0 Calma 11 Oeste 0 -- -- 86
2020-01-18 04:00:00 2.8 7 Oeste 10 Oeste 0 -- -- 87
2020-01-18 03:00:00 2.5 0 Calma 10 Oeste 0 -- -- 86
2020-01-18 02:00:00 2.2 6 Oeste 12 Oeste 0 -- -- 87
2020-01-18 01:00:00 2 5 Oeste 14 Oeste 0 -- -- 85
2020-01-18 00:00:00 2.9 6 Oeste 13 Oeste 0 -- -- 85
2020-01-17 23:00:00 4.1 9 Oeste 12 Oeste 0 -- -- 84
2020-01-17 22:00:00 5.4 8 Oeste 10 Oeste 0 -- -- 81
2020-01-17 21:00:00 5 6 Oeste 13 Oeste 0 -- -- 82
2020-01-17 20:00:00 4.6 4 Oeste 11 Oeste 0 -- -- 82
2020-01-17 19:00:00 5.9 4 Oeste 8 Noroeste 0 -- -- 76
2020-01-17 18:00:00 8.3 6 Noroeste 21 Nordeste 0 -- -- 69
2020-01-17 17:00:00 9.8 8 Norte 18 Norte 0 -- -- 65
2020-01-17 16:00:00 10.6 10 Nordeste 24 Nordeste 0 -- -- 64
2020-01-17 15:00:00 10.6 10 Nordeste 40 Norte 0 -- -- 67
2020-01-17 14:00:00 11.4 8 Norte 30 Norte 0 -- -- 65
2020-01-17 13:00:00 14.4 17 Noroeste 46 Oeste 0 -- -- 52
2020-01-17 12:00:00 13.7 15 Oeste 38 Sudoeste 0 -- -- 55
2020-01-17 11:00:00 12 15 Oeste 41 Sudoeste 0 -- -- 61
2020-01-17 10:00:00 9.7 19 Oeste 40 Oeste 0 -- -- 68
2020-01-17 09:00:00 9.7 18 Oeste 39 Sudoeste 0 -- -- 67
2020-01-17 08:00:00 9.8 10 Oeste 23 Oeste 0 -- -- 66
2020-01-17 07:00:00 9.7 11 Sudoeste 25 Sudoeste 0 -- -- 64
2020-01-17 06:00:00 8.1 8 Noroeste 23 Nordeste 0 -- -- 72
2020-01-17 05:00:00 9.8 8 Norte 28 Este 0 -- -- 66
2020-01-17 04:00:00 11.1 7 Sur 37 Sudoeste 0 -- -- 61
2020-01-17 03:00:00 11.8 22 Sudoeste 45 Oeste 0 -- -- 58
2020-01-17 02:00:00 12.3 16 Sudoeste 59 Oeste 0 -- -- 55
2020-01-17 01:00:00 13.5 24 Oeste 49 Sudoeste 0 -- -- 49
2020-01-17 00:00:00 10 4 Sudeste 19 Sudoeste 0 -- -- 63
2020-01-16 23:00:00 8.4 8 Nordeste 22 Sudeste 0 -- -- 73
2020-01-16 22:00:00 9.9 9 Norte 27 Nordeste 0 -- -- 66
2020-01-16 21:00:00 9.1 6 Sur 17 Nordeste 0 -- -- 71
2020-01-16 20:00:00 10.6 3 Noroeste 13 Sudeste 0 -- -- 65
2020-01-16 19:00:00 9.5 4 Oeste 17 Sur 0 -- -- 74
2020-01-16 18:00:00 11.2 4 Noroeste 12 Norte 0 -- -- 69
2020-01-16 17:00:00 13.7 5 Sur 13 Sudeste 0 -- -- 61
2020-01-16 16:00:00 13.7 3 Este 13 Nordeste 0 -- -- 63
2020-01-16 15:00:00 11.9 3 Norte 12 Nordeste 0 -- -- 67
2020-01-16 14:00:00 11.7 5 Nordeste 12 Nordeste 0 -- -- 66
2020-01-16 13:00:00 10.9 4 Sudeste 10 Noroeste 0 -- -- 70
2020-01-16 12:00:00 8.3 4 Noroeste 12 Norte 0 -- -- 78
2020-01-16 11:00:00 6.1 4 Norte 11 Nordeste 0 -- -- 85
2020-01-16 10:00:00 3.9 0 Calma 6 Noroeste 0 -- -- 94
2020-01-16 09:00:00 1.4 0 Calma 5 Este 0 -- -- 94
2020-01-16 08:00:00 2.3 4 Noroeste 9 Sudoeste 0 -- -- 94
2020-01-16 07:00:00 2.7 6 Sudoeste 9 Sudoeste 0 -- -- 93
2020-01-16 06:00:00 2.8 3 Sudoeste 13 Noroeste 0 -- -- 92
2020-01-16 05:00:00 3.5 3 Sudoeste 8 Sur 0 -- -- 88
2020-01-16 04:00:00 4.9 3 Sur 16 Oeste 0 -- -- 87
2020-01-16 03:00:00 4.2 5 Sudoeste 14 Oeste 0 -- -- 87
2020-01-16 02:00:00 5 10 Oeste 13 Oeste 0 -- -- 85
2020-01-16 01:00:00 7.2 3 Sur 17 Oeste 0 -- -- 77
2020-01-16 00:00:00 8.9 6 Oeste 21 Oeste 0 -- -- 75
2020-01-15 23:00:00 8.6 12 Oeste 27 Oeste 0 -- -- 75
2020-01-15 22:00:00 8.2 9 Oeste 28 Oeste 0 -- -- 75
2020-01-15 21:00:00 8.3 9 Oeste 24 Oeste 0 -- -- 75
2020-01-15 20:00:00 9.2 8 Noroeste 22 Noroeste 0 -- -- 71
2020-01-15 19:00:00 10.6 14 Noroeste 21 Noroeste 0 -- -- 66
2020-01-15 18:00:00 11.9 8 Norte 22 Noroeste 0 -- -- 62
2020-01-15 17:00:00 11.4 3 Sudeste 13 Este 0 -- -- 63
2020-01-15 16:00:00 12.2 5 Sudoeste 12 Este 0 -- -- 57
2020-01-15 15:00:00 10.1 4 Sudoeste 14 Nordeste 0 -- -- 64
2020-01-15 14:00:00 8.4 4 Oeste 12 Sudoeste 0 -- -- 75
2020-01-15 13:00:00 6.4 4 Sudoeste 11 Norte 0 -- -- 81
2020-01-15 12:00:00 4.1 3 Sudoeste 8 Sudeste 0 -- -- 84
2020-01-15 11:00:00 2.3 3 Este 8 Este 0 -- -- 88
2020-01-15 10:00:00 1.5 3 Oeste 16 Noroeste 0 -- -- 90
2020-01-15 09:00:00 -0.2 2 Sudoeste 14 Oeste 0 -- -- 89
2020-01-15 08:00:00 0.3 6 Este 15 Nordeste 0 -- -- 85
2020-01-15 07:00:00 1.4 10 Oeste 19 Oeste 0 -- -- 85
2020-01-15 06:00:00 0.1 3 Oeste 8 Norte 0 -- -- 87
2020-01-15 05:00:00 0.4 4 Sudeste 13 Sudoeste 0 -- -- 85
2020-01-15 04:00:00 0.6 5 Sur 15 Noroeste 0 -- -- 84
2020-01-15 03:00:00 0.2 4 Oeste 10 Noroeste 0 -- -- 86
2020-01-15 02:00:00 0.2 0 Calma 17 Oeste 0 -- -- 84
2020-01-15 01:00:00 -0.5 6 Sudoeste 11 Sudoeste 0 -- -- 89
2020-01-15 00:00:00 -0.6 3 Sudeste 13 Oeste 0 -- -- 84
2020-01-14 23:00:00 -0.2 3 Sudoeste 13 Oeste 0 -- -- 81
2020-01-14 22:00:00 0.5 2 Este 13 Oeste 0 -- -- 79
2020-01-14 21:00:00 1 4 Sudoeste 12 Noroeste 0 -- -- 78
2020-01-14 20:00:00 1.4 3 Sudoeste 11 Oeste 0 -- -- 78
2020-01-14 19:00:00 1.9 4 Sudoeste 12 Noroeste 0 -- -- 81
2020-01-14 18:00:00 4 0 Calma 4 Este 0 -- -- 79
2020-01-14 17:00:00 5.5 0 Calma 10 Norte 0 -- -- 74
2020-01-14 16:00:00 5.7 5 Nordeste 12 Nordeste 0 -- -- 71
2020-01-14 15:00:00 6 5 Nordeste 11 Nordeste 0 -- -- 71
2020-01-14 14:00:00 5.1 6 Nordeste 14 Nordeste 0 -- -- 76
2020-01-14 13:00:00 5.4 6 Este 15 Nordeste 0 -- -- 77
2020-01-14 12:00:00 4.6 3 Sudeste 11 Este 0 -- -- 83
2020-01-14 11:00:00 -0.3 4 Este 10 Este 0 -- -- 93
2020-01-14 10:00:00 -1 3 Este 20 Oeste 0 -- -- 95
2020-01-14 09:00:00 -2.3 10 Nordeste 21 Oeste 0 -- -- 99
2020-01-14 08:00:00 -4.1 5 Sur 20 Oeste 0 -- -- 98
2020-01-14 07:00:00 -4.1 3 Sudeste 9 Sudoeste 0 -- -- 97
2020-01-14 06:00:00 -4.2 4 Nordeste 17 Este 0 -- -- 97
2020-01-14 05:00:00 -4.7 12 Este 20 Este 0 -- -- 97
2020-01-14 04:00:00 -4.6 3 Oeste 12 Este 0 -- -- 97
2020-01-14 03:00:00 -3.8 9 Sudoeste 19 Oeste 0 -- -- 98
2020-01-14 02:00:00 -3.6 3 Nordeste 12 Norte 0 -- -- 98
2020-01-14 01:00:00 -3.5 4 Sur 14 Norte 0 -- -- 97
2020-01-14 00:00:00 -3.6 6 Nordeste 10 Nordeste 0 -- -- 96
2020-01-13 23:00:00 -2.4 3 Sudoeste 10 Nordeste 0 -- -- 96
2020-01-13 22:00:00 -2.1 5 Oeste 9 Sudoeste 0 -- -- 96
2020-01-13 21:00:00 -1.1 3 Oeste 8 Norte 0 -- -- 95
2020-01-13 20:00:00 -1.1 4 Norte 18 Oeste 0 -- -- 92
2020-01-13 19:00:00 0.4 6 Sudoeste 12 Sur 0 -- -- 90
2020-01-13 18:00:00 2.8 0 Calma 12 Norte 0 -- -- 82
2020-01-13 17:00:00 3.9 2 Este 8 Nordeste 0 -- -- 78
2020-01-13 16:00:00 3.7 2 Norte 11 Nordeste 0 -- -- 77
2020-01-13 15:00:00 3.7 7 Nordeste 13 Norte 0 -- -- 77
2020-01-13 14:00:00 4.2 6 Nordeste 14 Nordeste 0 -- -- 75
2020-01-13 13:00:00 3.6 8 Nordeste 12 Nordeste 0 -- -- 76
2020-01-13 12:00:00 3.3 5 Este 9 Nordeste 0 -- -- 77
2020-01-13 11:00:00 3.1 3 Este 5 Este 0 -- -- 79
2020-01-13 10:00:00 0.7 0 Calma 9 Oeste 0 -- -- 87
2020-01-13 09:00:00 -1.7 4 Oeste 11 Oeste 0 -- -- 90
2020-01-13 08:00:00 -2.4 3 Sudoeste 9 Oeste 0 -- -- 90
2020-01-13 07:00:00 -2.2 2 Sudoeste 7 Oeste 0 -- -- 89
2020-01-13 06:00:00 -1.8 5 Oeste 8 Noroeste 0 -- -- 85
2020-01-13 05:00:00 -0.5 7 Noroeste 13 Noroeste 0 -- -- 79
2020-01-13 04:00:00 0 0 Calma 8 Noroeste 0 -- -- 77
2020-01-13 03:00:00 -0.3 4 Oeste 8 Noroeste 0 -- -- 76
2020-01-13 02:00:00 0.2 3 Oeste 9 Oeste 0 -- -- 75
2020-01-13 01:00:00 1.4 0 Calma 6 Sudoeste 0 -- -- 72
2020-01-13 00:00:00 2.2 3 Oeste 12 Oeste 0 -- -- 70
2020-01-12 23:00:00 2.1 3 Oeste 10 Oeste 0 -- -- 73
2020-01-12 22:00:00 2.3 7 Oeste 13 Oeste 0 -- -- 71
2020-01-12 21:00:00 2.8 10 Oeste 13 Oeste 0 -- -- 68
2020-01-12 20:00:00 3.5 9 Oeste 14 Oeste 0 -- -- 66
2020-01-12 19:00:00 4.6 3 Sudoeste 16 Oeste 0 -- -- 64
2020-01-12 18:00:00 8.4 5 Oeste 9 Oeste 0 -- -- 54
2020-01-12 17:00:00 10.9 0 Calma 8 Este 0 -- -- 45
2020-01-12 16:00:00 11.8 3 Nordeste 8 Este 0 -- -- 41
2020-01-12 15:00:00 11.3 3 Este 10 Nordeste 0 -- -- 44
2020-01-12 14:00:00 9.8 3 Nordeste 14 Nordeste 0 -- -- 47
2020-01-12 13:00:00 8.7 7 Nordeste 12 Nordeste 0 -- -- 51
2020-01-12 12:00:00 7.9 3 Sudeste 6 Este 0 -- -- 50
2020-01-12 11:00:00 4.2 3 Este 10 Nordeste 0 -- -- 61
2020-01-12 10:00:00 1.5 0 Calma 6 Oeste 0 -- -- 63
2020-01-12 09:00:00 -2.7 0 Calma 6 Sudoeste 0 -- -- 74
2020-01-12 08:00:00 -2.4 0 Calma 8 Oeste 0 -- -- 76
2020-01-12 07:00:00 -1.4 8 Oeste 10 Oeste 0 -- -- 71
2020-01-12 06:00:00 -2.2 0 Calma 9 Oeste 0 -- -- 79
2020-01-12 05:00:00 -1.6 2 Sudoeste 8 Oeste 0 -- -- 78
2020-01-12 04:00:00 -1 5 Oeste 9 Oeste 0 -- -- 79
2020-01-12 03:00:00 -0.5 6 Oeste 13 Oeste 0 -- -- 78
2020-01-12 02:00:00 0.2 6 Oeste 11 Oeste 0 -- -- 76
2020-01-12 01:00:00 0.8 3 Sudoeste 6 Oeste 0 -- -- 76
2020-01-12 00:00:00 1.9 2 Oeste 10 Sudoeste 0 -- -- 74
2020-01-11 23:00:00 2.5 4 Sudoeste 12 Oeste 0 -- -- 75
2020-01-11 22:00:00 2.7 5 Oeste 11 Sudoeste 0 -- -- 82
2020-01-11 21:00:00 2.7 5 Oeste 10 Oeste 0 -- -- 83
2020-01-11 20:00:00 3.1 9 Oeste 12 Oeste 0 -- -- 81
2020-01-11 19:00:00 4.1 7 Oeste 11 Oeste 0 -- -- 78
2020-01-11 18:00:00 8.2 3 Noroeste 6 Nordeste 0 -- -- 64
2020-01-11 17:00:00 10.1 3 Norte 9 Norte 0 -- -- 58
2020-01-11 16:00:00 10.7 5 Nordeste 15 Nordeste 0 -- -- 54
2020-01-11 15:00:00 10.7 8 Norte 19 Nordeste 0 -- -- 56
2020-01-11 14:00:00 10.9 6 Norte 16 Norte 0 -- -- 52
2020-01-11 13:00:00 10.6 5 Norte 19 Noroeste 0 -- -- 51
2020-01-11 12:00:00 9.5 14 Noroeste 27 Noroeste 0 -- -- 56
2020-01-11 11:00:00 8.2 13 Noroeste 23 Oeste 0 -- -- 58
2020-01-11 10:00:00 5.2 9 Oeste 15 Oeste 0 -- -- 67
2020-01-11 09:00:00 1.9 12 Oeste 18 Oeste 0 -- -- 77
2020-01-11 08:00:00 2.4 12 Oeste 19 Oeste 0 -- -- 78
2020-01-11 07:00:00 2.1 13 Oeste 19 Oeste 0 -- -- 80
2020-01-11 06:00:00 2.6 11 Oeste 18 Noroeste 0 -- -- 79
2020-01-11 05:00:00 3.7 13 Oeste 22 Oeste 0 -- -- 77
2020-01-11 04:00:00 3.1 14 Oeste 21 Oeste 0 -- -- 81
2020-01-11 03:00:00 3 9 Oeste 16 Noroeste 0 -- -- 81
2020-01-11 02:00:00 4 8 Oeste 19 Noroeste 0 -- -- 77
2020-01-11 01:00:00 4.8 8 Oeste 23 Noroeste 0 -- -- 76
2020-01-11 00:00:00 6.2 11 Noroeste 29 Noroeste 0 -- -- 71
2020-01-10 23:00:00 6.3 10 Noroeste 22 Noroeste 0 -- -- 75
2020-01-10 22:00:00 6.2 7 Oeste 15 Noroeste 0 -- -- 76
2020-01-10 21:00:00 6.8 9 Noroeste 22 Noroeste 0 -- -- 74
2020-01-10 20:00:00 7 10 Noroeste 28 Noroeste 0 -- -- 71
2020-01-10 19:00:00 7.5 15 Noroeste 32 Norte 0 -- -- 72
2020-01-10 18:00:00 7.9 16 Noroeste 33 Noroeste 0 -- -- 70
2020-01-10 17:00:00 8.9 16 Noroeste 33 Noroeste 0 -- -- 70
2020-01-10 16:00:00 9.3 17 Norte 39 Noroeste 0 -- -- 65
2020-01-10 15:00:00 9.2 17 Noroeste 33 Noroeste 0 -- -- 67
2020-01-10 14:00:00 9 22 Norte 40 Noroeste 0 -- -- 65
2020-01-10 13:00:00 9 16 Norte 35 Noroeste 0 -- -- 66
2020-01-10 12:00:00 8.9 21 Norte 36 Noroeste 0 -- -- 65
2020-01-10 11:00:00 8.4 13 Noroeste 30 Noroeste 0 -- -- 69
2020-01-10 10:00:00 6.7 8 Oeste 15 Oeste 0 -- -- 78
2020-01-10 09:00:00 5 9 Noroeste 17 Noroeste 0 -- -- 83
2020-01-10 08:00:00 3.7 8 Noroeste 25 Noroeste 0 -- -- 86
2020-01-10 07:00:00 4.3 12 Oeste 18 Oeste 0 -- -- 86
2020-01-10 06:00:00 4.7 5 Oeste 17 Oeste 0 -- -- 89
2020-01-10 05:00:00 5.9 6 Oeste 23 Noroeste 0 -- -- 86
2020-01-10 04:00:00 5.8 16 Noroeste 32 Noroeste 0 -- -- 99
2020-01-10 03:00:00 5.4 4 Oeste 10 Oeste 0 -- -- 100
2020-01-10 02:00:00 5 5 Oeste 10 Oeste 0 -- -- 100
2020-01-10 01:00:00 3.5 4 Oeste 12 Sudoeste 0.6 -- -- 100
2020-01-10 00:00:00 2.2 6 Sudoeste 9 Sudoeste 0 -- -- 100
2020-01-09 23:00:00 2 4 Norte 14 Norte 0 -- -- 100
2020-01-09 22:00:00 2 4 Noroeste 8 Sudoeste 0 -- -- 99
2020-01-09 21:00:00 2.1 2 Sudoeste 10 Sudoeste 0 -- -- 99
2020-01-09 20:00:00 2.1 3 Sur 12 Norte 0 -- -- 100
2020-01-09 19:00:00 2 5 Noroeste 21 Norte 0 -- -- 99
2020-01-09 18:00:00 2.3 8 Norte 15 Nordeste 0 -- -- 99
2020-01-09 17:00:00 2.4 4 Este 9 Norte 0 -- -- 99
2020-01-09 16:00:00 2.3 4 Nordeste 12 Nordeste 0 -- -- 99
2020-01-09 15:00:00 2.6 3 Nordeste 9 Este 0 -- -- 99
2020-01-09 14:00:00 2.4 5 Este 10 Norte 0 -- -- 100
2020-01-09 13:00:00 1.8 2 Sudeste 6 Sudeste 0 -- -- 100
2020-01-09 12:00:00 1.3 3 Este 6 Este 0 -- -- 100
2020-01-09 11:00:00 1 3 Este 5 Noroeste 0 -- -- 100
2020-01-09 10:00:00 0.7 0 Calma 4 Noroeste 0 -- -- 100
2020-01-09 09:00:00 0.5 2 Sudoeste 3 Oeste 0 -- -- 100
2020-01-09 08:00:00 0.2 0 Calma 4 Oeste 0 -- -- 100
2020-01-09 07:00:00 -0.3 0 Calma 8 Oeste 0 -- -- 100
2020-01-09 06:00:00 -0.7 5 Oeste 8 Oeste 0.2 -- -- 99
2020-01-09 05:00:00 -0.2 0 Calma 4 Oeste 0 -- -- 99
2020-01-09 04:00:00 0.1 2 Noroeste 6 Noroeste 0 -- -- 99
2020-01-09 03:00:00 0.1 4 Oeste 6 Oeste 0 -- -- 99
2020-01-09 02:00:00 0.9 0 Calma 4 Noroeste 0 -- -- 99
2020-01-09 01:00:00 0.8 0 Calma 4 Sudoeste 0 -- -- 99
2020-01-09 00:00:00 0.4 2 Sudoeste 5 Sudoeste 0 -- -- 98
2020-01-08 23:00:00 0.9 0 Calma 5 Oeste 0 -- -- 98
2020-01-08 22:00:00 1.6 3 Noroeste 6 Noroeste 0 -- -- 97
2020-01-08 21:00:00 1.9 0 Calma 5 Oeste 0 -- -- 97
2020-01-08 20:00:00 2.3 0 Calma 8 Norte 0 -- -- 96
2020-01-08 19:00:00 2.7 3 Norte 7 Norte 0 -- -- 94
2020-01-08 18:00:00 4.5 4 Nordeste 6 Nordeste 0 -- -- 88
2020-01-08 17:00:00 6 3 Norte 12 Nordeste 0 -- -- 84
2020-01-08 16:00:00 7.1 7 Nordeste 13 Nordeste 0 -- -- 79
2020-01-08 15:00:00 8.8 5 Nordeste 10 Nordeste 0 -- -- 73
2020-01-08 14:00:00 8.4 4 Nordeste 12 Nordeste 0 -- -- 73
2020-01-08 13:00:00 8.6 6 Este 9 Norte 0 -- -- 71
2020-01-08 12:00:00 7 5 Este 9 Nordeste 0 -- -- 74
2020-01-08 11:00:00 5.4 6 Nordeste 10 Nordeste 0 -- -- 78
2020-01-08 10:00:00 4.7 0 Calma 7 Oeste 0 -- -- 92
2020-01-08 09:00:00 2 4 Oeste 8 Oeste 0 -- -- 93
2020-01-08 08:00:00 2.6 5 Noroeste 8 Noroeste 0 -- -- 92
2020-01-08 07:00:00 3.4 3 Noroeste 5 Nordeste 0 -- -- 90
2020-01-08 06:00:00 5.1 3 Este 11 Nordeste 0 -- -- 84
2020-01-08 05:00:00 7.6 5 Noroeste 15 Oeste 0 -- -- 81
2020-01-08 04:00:00 8.9 12 Oeste 18 Oeste 0 -- -- 77
2020-01-08 03:00:00 9.8 9 Oeste 16 Oeste 0 -- -- 75
2020-01-08 02:00:00 7.1 5 Norte 17 Oeste 0 -- -- 80
2020-01-08 01:00:00 5.6 4 Sudoeste 12 Este 0 -- -- 81
2020-01-08 00:00:00 8 6 Norte 16 Oeste 0 -- -- 69
2020-01-07 23:00:00 10.8 12 Oeste 20 Oeste 0 -- -- 67
2020-01-07 22:00:00 10.1 10 Oeste 19 Oeste 0 -- -- 62
2020-01-07 21:00:00 10 9 Oeste 17 Sudoeste 0 -- -- 62
2020-01-07 20:00:00 9.2 12 Oeste 16 Oeste 0 -- -- 71
2020-01-07 19:00:00 9.2 10 Oeste 13 Oeste 0 -- -- 73
2020-01-07 18:00:00 8.1 7 Oeste 11 Oeste 0 -- -- 74
2020-01-07 17:00:00 9.1 0 Calma 8 Nordeste 0 -- -- 65
2020-01-07 16:00:00 9.5 6 Nordeste 12 Este 0 -- -- 63
2020-01-07 15:00:00 9.4 3 Sudeste 13 Norte 0 -- -- 63
2020-01-07 14:00:00 8.2 9 Nordeste 16 Nordeste 0 -- -- 65
2020-01-07 13:00:00 7.9 3 Sudeste 11 Nordeste 0 -- -- 65
2020-01-07 12:00:00 7.4 6 Este 9 Este 0 -- -- 69
2020-01-07 11:00:00 5.8 3 Sudeste 9 Sudoeste 0 -- -- 74
2020-01-07 10:00:00 0.9 0 Calma 7 Noroeste 0 -- -- 91
2020-01-07 09:00:00 -2 3 Sudoeste 7 Sudoeste 0 -- -- 89
2020-01-07 08:00:00 -1.3 3 Noroeste 9 Oeste 0 -- -- 87
2020-01-07 07:00:00 -1.5 4 Oeste 10 Oeste 0 -- -- 90
2020-01-07 06:00:00 -1.2 6 Oeste 11 Oeste 0 -- -- 89
2020-01-07 05:00:00 -1.1 5 Oeste 14 Oeste 0 -- -- 89
2020-01-07 04:00:00 -1.2 5 Oeste 14 Oeste 0 -- -- 88
2020-01-07 03:00:00 -0.4 4 Oeste 13 Oeste 0 -- -- 89
2020-01-07 02:00:00 -0.2 11 Oeste 15 Oeste 0 -- -- 88
2020-01-07 01:00:00 -0.7 4 Oeste 12 Oeste 0 -- -- 89
2020-01-07 00:00:00 -0.9 5 Sudoeste 9 Sudoeste 0 -- -- 94
2020-01-06 23:00:00 -0.3 3 Sudoeste 11 Oeste 0 -- -- 96
2020-01-06 22:00:00 -0.7 4 Sudoeste 11 Norte 0 -- -- 98
2020-01-06 21:00:00 -1 0 Calma 12 Sudoeste 0 -- -- 97
2020-01-06 20:00:00 -0.2 3 Norte 8 Sudoeste 0 -- -- 97
2020-01-06 19:00:00 0.9 0 Calma 8 Nordeste 0 -- -- 96
2020-01-06 18:00:00 1.5 4 Este 6 Nordeste 0 -- -- 94
2020-01-06 17:00:00 2.6 3 Este 6 Este 0 -- -- 94
2020-01-06 16:00:00 2.5 4 Nordeste 8 Este 0 -- -- 96
2020-01-06 15:00:00 2 2 Oeste 9 Nordeste 0 -- -- 98
2020-01-06 14:00:00 1.5 2 Norte 7 Norte 0 -- -- 98
2020-01-06 13:00:00 0.8 2 Noroeste 9 Norte 0 -- -- 98
2020-01-06 12:00:00 0.2 2 Nordeste 8 Este 0 -- -- 98
2020-01-06 11:00:00 -0.1 3 Sur 8 Oeste 0 -- -- 98
2020-01-06 10:00:00 -0.4 2 Oeste 9 Noroeste 0 -- -- 98